Time;durP1;ratioP1;P1;durP2;ratioP2;P2;SDS_P1;SDS_P2;PMS_P1;PMS_P2;Temp;Humidity;BMP_temperature;BMP_pressure;BME280_temperature;BME280_humidity;BME280_pressure;Samples;Min_cycle;Max_cycle;Signal;HPM_P1;HPM_P2
2023/02/26 00:00:14;;;;;;;4.75;2.10;;;1.90;39.30;;;;;;5011553;28;20384;-73
2023/02/26 00:02:41;;;;;;;8.85;2.10;;;2.10;38.50;;;;;;5011321;28;20388;-73
2023/02/26 00:05:07;;;;;;;3.80;1.80;;;2.00;38.60;;;;;;5011433;28;20392;-73
2023/02/26 00:07:33;;;;;;;5.93;2.15;;;2.00;38.60;;;;;;5011877;28;20385;-71
2023/02/26 00:10:01;;;;;;;9.13;2.50;;;1.90;38.90;;;;;;5011899;28;20901;-72
2023/02/26 00:12:27;;;;;;;6.37;2.07;;;1.90;39.90;;;;;;5011586;28;20492;-72
2023/02/26 00:14:53;;;;;;;6.50;1.77;;;2.00;39.40;;;;;;5011894;28;20385;-72
2023/02/26 00:17:47;;;;;;;5.45;1.50;;;2.00;39.20;;;;;;5012669;28;20901;-71
2023/02/26 00:20:15;;;;;;;5.88;2.10;;;2.10;39.00;;;;;;4995928;28;20392;-72
2023/02/26 00:22:42;;;;;;;3.93;2.00;;;2.00;39.70;;;;;;5014531;28;20393;-74
2023/02/26 00:25:08;;;;;;;6.97;1.58;;;2.00;39.70;;;;;;5019281;28;20400;-73
2023/02/26 00:27:35;;;;;;;4.47;1.80;;;2.00;39.90;;;;;;5001896;28;20424;-72
2023/02/26 00:30:01;;;;;;;3.90;1.90;;;2.00;40.10;;;;;;5022075;28;20377;-73
2023/02/26 00:32:27;;;;;;;7.80;2.08;;;2.00;40.80;;;;;;5012503;28;20404;-73
2023/02/26 00:34:53;;;;;;;7.00;2.00;;;2.00;41.60;;;;;;5011607;28;20385;-73
2023/02/26 00:37:53;;;;;;;11.38;2.20;;;2.10;40.70;;;;;;5011649;28;20742;-72
2023/02/26 00:40:22;;;;;;;6.00;1.80;;;2.20;40.50;;;;;;5011311;28;20789;-72
2023/02/26 00:42:48;;;;;;;4.75;1.92;;;2.30;40.40;;;;;;5011384;28;20742;-72
2023/02/26 00:45:14;;;;;;;10.30;2.00;;;2.30;39.90;;;;;;5011874;28;20757;-72
2023/02/26 00:47:49;;;;;;;8.10;2.20;;;2.30;40.20;;;;;;4995303;28;20381;-72
2023/02/26 00:50:18;;;;;;;3.65;1.80;;;2.30;39.90;;;;;;5012605;28;20373;-74
2023/02/26 00:53:05;;;;;;;5.65;1.88;;;2.30;39.80;;;;;;5014692;28;20470;-73
2023/02/26 00:55:31;;;;;;;8.13;1.90;;;2.20;40.40;;;;;;5015820;28;20376;-72
2023/02/26 00:57:56;;;;;;;4.40;1.90;;;2.20;41.50;;;;;;5014942;28;20448;-73
2023/02/26 01:00:22;;;;;;;6.07;1.80;;;2.20;41.20;;;;;;5014703;28;20458;-73
2023/02/26 01:02:49;;;;;;;5.97;2.30;;;2.20;41.60;;;;;;5014586;28;20476;-73
2023/02/26 01:05:15;;;;;;;7.60;2.72;;;2.10;43.10;;;;;;5015192;28;20484;-73
2023/02/26 01:07:50;;;;;;;12.30;2.95;;;2.20;42.40;;;;;;5015235;28;20435;-72
2023/02/26 01:10:17;;;;;;;7.30;2.97;;;2.00;43.60;;;;;;5015384;28;20389;-72
2023/02/26 01:12:43;;;;;;;7.13;2.60;;;1.90;44.50;;;;;;5015670;28;20408;-74
2023/02/26 01:15:09;;;;;;;9.52;2.22;;;2.00;44.40;;;;;;5016413;28;20396;-73
2023/02/26 01:17:46;;;;;;;7.78;2.13;;;2.20;42.70;;;;;;5015601;28;20393;-74
2023/02/26 01:20:17;;;;;;;6.18;1.80;;;2.20;42.30;;;;;;5015180;28;20766;-74
2023/02/26 01:22:53;;;;;;;7.70;2.05;;;2.20;42.20;;;;;;5014758;28;20705;-72
2023/02/26 01:25:25;;;;;;;7.93;2.30;;;2.10;43.00;;;;;;5015183;28;20400;-73
2023/02/26 01:27:52;;;;;;;7.28;2.20;;;2.10;43.40;;;;;;5015217;28;20831;-73
2023/02/26 01:30:18;;;;;;;7.45;2.60;;;2.00;43.60;;;;;;5014995;28;20395;-74
2023/02/26 01:32:49;;;;;;;8.60;2.00;;;2.00;43.60;;;;;;5014527;28;20441;-72
2023/02/26 01:35:30;;;;;;;5.25;2.38;;;1.90;44.40;;;;;;5015009;28;20831;-73
2023/02/26 01:38:10;;;;;;;6.60;2.40;;;1.90;45.40;;;;;;5014945;28;20400;-74
2023/02/26 01:40:54;;;;;;;5.28;1.95;;;1.90;45.70;;;;;;5015089;28;20412;-73
2023/02/26 01:43:29;;;;;;;7.20;2.40;;;2.00;45.00;;;;;;5015100;28;20839;-73
2023/02/26 01:46:24;;;;;;;7.32;2.00;;;2.10;44.30;;;;;;5015152;28;20486;-73
2023/02/26 01:48:53;;;;;;;8.38;2.30;;;2.10;44.70;;;;;;4996258;28;20769;-72
2023/02/26 01:51:40;;;;;;;8.38;2.30;;;2.10;44.90;;;;;;5014437;28;20400;-71
2023/02/26 01:54:06;;;;;;;6.43;2.47;;;2.10;45.30;;;;;;5013858;28;20430;-74
2023/02/26 01:56:32;;;;;;;6.07;2.00;;;1.90;45.40;;;;;;5013729;28;20949;-71
2023/02/26 01:58:58;;;;;;;9.38;2.97;;;2.00;45.10;;;;;;5013626;28;20392;-73
2023/02/26 02:01:23;;;;;;;5.90;2.17;;;1.80;46.70;;;;;;4995901;28;20469;-73
2023/02/26 02:03:49;;;;;;;6.30;2.15;;;1.70;47.80;;;;;;5013207;28;20908;-74
2023/02/26 02:06:20;;;;;;;3.72;1.73;;;1.80;47.50;;;;;;5013437;28;20770;-73
2023/02/26 02:08:46;;;;;;;4.60;2.03;;;1.80;47.50;;;;;;5013705;28;20393;-73
2023/02/26 02:11:13;;;;;;;5.28;2.33;;;1.80;47.50;;;;;;5013106;28;20862;-72
2023/02/26 02:13:54;;;;;;;6.20;2.15;;;1.80;48.10;;;;;;5011726;28;20490;-72
2023/02/26 02:16:41;;;;;;;4.32;2.20;;;1.70;48.70;;;;;;5015828;28;20377;-72
2023/02/26 02:19:38;;;;;;;7.15;2.70;;;1.60;49.80;;;;;;5013148;28;20909;-73
2023/02/26 02:22:22;;;;;;;9.63;2.60;;;1.60;50.60;;;;;;4977634;28;20396;-72
2023/02/26 02:24:48;;;;;;;8.18;2.45;;;1.50;49.90;;;;;;5012996;28;20401;-73
2023/02/26 02:27:22;;;;;;;7.60;3.50;;;1.60;50.50;;;;;;5012933;28;20400;-73
2023/02/26 02:30:02;;;;;;;10.03;2.30;;;1.60;50.00;;;;;;5013406;28;20385;-73
2023/02/26 02:32:34;;;;;;;7.93;2.38;;;1.70;49.10;;;;;;5012795;28;20499;-73
2023/02/26 02:35:14;;;;;;;5.30;1.70;;;1.60;48.30;;;;;;5011871;28;20750;-73
2023/02/26 02:37:52;;;;;;;6.57;2.10;;;1.60;48.90;;;;;;5012943;28;20389;-74
2023/02/26 02:40:29;;;;;;;11.15;3.10;;;1.50;49.70;;;;;;5022186;28;20397;-72
2023/02/26 02:43:02;;;;;;;6.93;2.35;;;1.40;49.90;;;;;;4996313;28;20405;-72
2023/02/26 02:45:42;;;;;;;7.25;2.50;;;1.40;50.60;;;;;;5013153;28;20400;-73
2023/02/26 02:48:27;;;;;;;2.97;2.17;;;1.40;51.00;;;;;;5012874;28;20392;-72
2023/02/26 02:51:21;;;;;;;6.68;2.08;;;1.30;51.40;;;;;;5014085;28;20428;-72
2023/02/26 02:53:54;;;;;;;6.70;2.05;;;1.30;51.50;;;;;;5014398;28;20412;-71
2023/02/26 02:56:26;;;;;;;6.15;2.10;;;1.30;51.80;;;;;;5013944;28;20447;-72
2023/02/26 02:59:00;;;;;;;9.45;2.40;;;1.20;51.20;;;;;;5012576;28;20399;-72
2023/02/26 03:01:27;;;;;;;7.05;2.10;;;1.20;50.90;;;;;;5013183;28;20388;-71
2023/02/26 03:04:07;;;;;;;5.93;1.98;;;1.20;50.30;;;;;;5012800;28;20472;-72
2023/02/26 03:06:33;;;;;;;8.57;2.08;;;1.10;50.80;;;;;;5012676;28;20908;-73
2023/02/26 03:09:00;;;;;;;9.98;2.30;;;1.10;50.50;;;;;;5012489;28;20402;-71
2023/02/26 03:11:26;;;;;;;9.68;2.42;;;1.10;50.40;;;;;;5012496;28;20817;-73
2023/02/26 03:13:52;;;;;;;3.37;1.87;;;1.10;49.90;;;;;;5011983;28;20720;-72
2023/02/26 03:16:42;;;;;;;6.93;1.90;;;1.00;49.10;;;;;;5012219;28;20400;-72
2023/02/26 03:19:33;;;;;;;6.18;2.00;;;1.00;49.10;;;;;;5012197;28;20407;-71
2023/02/26 03:22:20;;;;;;;4.65;1.83;;;1.00;48.60;;;;;;5012217;28;20388;-72
2023/02/26 03:24:59;;;;;;;7.38;2.15;;;1.00;47.90;;;;;;5011831;28;20400;-71
2023/02/26 03:27:45;;;;;;;7.40;2.40;;;1.00;48.10;;;;;;5012267;28;20890;-72
2023/02/26 03:30:18;;;;;;;9.82;2.40;;;0.90;48.60;;;;;;5012260;28;20393;-71
2023/02/26 03:32:52;;;;;;;3.65;1.92;;;0.90;49.80;;;;;;5009409;28;20751;-71
2023/02/26 03:35:48;;;;;;;5.70;1.70;;;0.90;49.60;;;;;;4992337;28;20525;-72
2023/02/26 03:38:41;;;;;;;8.38;2.10;;;0.90;49.40;;;;;;5009893;28;20403;-72
2023/02/26 03:41:14;;;;;;;8.30;2.20;;;0.80;49.90;;;;;;5008886;28;20416;-71
2023/02/26 03:44:00;;;;;;;5.85;2.65;;;0.80;50.80;;;;;;5009763;28;20874;-72
2023/02/26 03:46:31;;;;;;;7.97;2.80;;;0.80;50.10;;;;;;5010570;28;20483;-71
2023/02/26 03:49:02;;;;;;;8.07;3.00;;;0.80;50.60;;;;;;5009358;28;20400;-71
2023/02/26 03:51:29;;;;;;;5.00;1.92;;;0.80;50.40;;;;;;5004580;28;21214;-72
2023/02/26 03:54:05;;;;;;;5.50;2.30;;;0.80;49.60;;;;;;5027856;28;20430;-72
2023/02/26 03:56:38;;;;;;;7.25;2.25;;;0.80;49.50;;;;;;5032236;28;20388;-72
2023/02/26 03:59:03;;;;;;;5.10;2.00;;;0.80;49.50;;;;;;5032012;28;20824;-71
2023/02/26 04:01:37;;;;;;;9.35;2.10;;;0.80;50.10;;;;;;5028023;28;20379;-72
2023/02/26 04:04:07;;;;;;;5.40;1.90;;;0.70;51.30;;;;;;4999102;28;20411;-72
2023/02/26 04:06:34;;;;;;;4.80;2.15;;;0.60;52.00;;;;;;4992412;28;20460;-74
2023/02/26 04:09:00;;;;;;;4.90;1.60;;;0.60;52.80;;;;;;5019591;28;20897;-80
2023/02/26 04:11:26;;;;;;;4.40;2.00;;;0.70;53.20;;;;;;5020914;28;20396;-78
2023/02/26 04:13:52;;;;;;;8.20;2.40;;;0.60;53.50;;;;;;5019933;28;20750;-79
2023/02/26 04:16:19;;;;;;;7.90;2.13;;;0.60;54.10;;;;;;5018899;28;20411;-71
2023/02/26 04:18:45;;;;;;;11.63;2.28;;;0.50;55.20;;;;;;5026822;28;20407;-74
2023/02/26 04:21:17;;;;;;;3.87;2.00;;;0.50;55.60;;;;;;5012338;28;20411;-74
2023/02/26 04:23:43;;;;;;;9.05;2.22;;;0.50;56.20;;;;;;5009099;28;20415;-74
2023/02/26 04:26:08;;;;;;;6.55;1.77;;;0.40;56.50;;;;;;5010807;28;20384;-74
2023/02/26 04:28:36;;;;;;;6.68;1.85;;;0.30;58.00;;;;;;5015556;28;20396;-75
2023/02/26 04:31:03;;;;;;;5.13;1.97;;;0.50;57.60;;;;;;5017973;28;20376;-74
2023/02/26 04:33:29;;;;;;;8.50;1.88;;;0.50;56.70;;;;;;5018080;28;20482;-75
2023/02/26 04:35:55;;;;;;;8.85;2.42;;;0.50;56.40;;;;;;5019121;28;20392;-75
2023/02/26 04:38:20;;;;;;;7.43;2.27;;;0.50;56.80;;;;;;5021078;28;20458;-75
2023/02/26 04:40:46;;;;;;;5.60;1.80;;;0.50;56.30;;;;;;5019949;28;20393;-74
2023/02/26 04:43:12;;;;;;;6.35;1.90;;;0.50;56.70;;;;;;5014934;28;20478;-74
2023/02/26 04:45:38;;;;;;;4.30;1.40;;;0.50;57.30;;;;;;4997363;28;20452;-74
2023/02/26 04:48:03;;;;;;;3.37;1.77;;;0.40;57.30;;;;;;5014976;28;20530;-73
2023/02/26 04:50:29;;;;;;;4.23;1.70;;;0.70;57.50;;;;;;5014771;28;20392;-73
2023/02/26 04:52:54;;;;;;;5.50;1.90;;;0.40;57.90;;;;;;5016242;28;20493;-74
2023/02/26 04:55:20;;;;;;;7.72;1.90;;;0.40;57.50;;;;;;5017062;28;20455;-75
2023/02/26 04:57:46;;;;;;;4.60;2.42;;;0.40;57.80;;;;;;5016280;28;20754;-73
2023/02/26 05:00:12;;;;;;;7.90;2.07;;;0.30;58.60;;;;;;5016448;28;20446;-73
2023/02/26 05:02:37;;;;;;;4.00;1.90;;;0.40;58.10;;;;;;5023373;28;20406;-72
2023/02/26 05:05:03;;;;;;;6.40;1.80;;;0.30;58.80;;;;;;5014387;28;20389;-72
2023/02/26 05:07:29;;;;;;;8.90;1.80;;;0.30;58.60;;;;;;5012527;28;20397;-72
2023/02/26 05:09:54;;;;;;;10.00;1.90;;;0.30;58.90;;;;;;5012230;28;20377;-71
2023/02/26 05:12:20;;;;;;;5.40;2.00;;;0.20;59.10;;;;;;5011941;28;20889;-72
2023/02/26 05:14:45;;;;;;;5.40;1.80;;;0.20;59.40;;;;;;5012079;28;20773;-72
2023/02/26 05:17:11;;;;;;;7.15;1.67;;;0.20;59.10;;;;;;5012257;28;20798;-70
2023/02/26 05:19:36;;;;;;;8.75;1.90;;;0.20;59.20;;;;;;5005883;28;20780;-71
2023/02/26 05:22:02;;;;;;;3.60;1.87;;;0.20;59.50;;;;;;5004266;28;20403;-71
2023/02/26 05:24:27;;;;;;;3.60;1.70;;;0.20;60.30;;;;;;5012773;28;20410;-72
2023/02/26 05:26:53;;;;;;;3.20;1.67;;;0.20;59.70;;;;;;5011775;28;20404;-72
2023/02/26 05:29:18;;;;;;;4.90;1.67;;;0.20;59.80;;;;;;5014935;28;20453;-72
2023/02/26 05:31:44;;;;;;;4.60;2.00;;;0.20;59.10;;;;;;4998624;28;20503;-73
2023/02/26 05:34:10;;;;;;;7.50;2.40;;;0.10;59.60;;;;;;5022587;28;20458;-72
2023/02/26 05:36:35;;;;;;;6.70;2.00;;;0.10;60.10;;;;;;5011839;28;20884;-71
2023/02/26 05:39:01;;;;;;;5.05;1.65;;;0.10;59.60;;;;;;5011015;28;20866;-70
2023/02/26 05:41:26;;;;;;;7.90;2.25;;;0.10;59.30;;;;;;5011303;28;20762;-73
2023/02/26 05:43:52;;;;;;;3.20;1.73;;;0.10;59.70;;;;;;5011490;28;20903;-72
2023/02/26 05:46:18;;;;;;;3.20;1.98;;;0.10;59.30;;;;;;5011178;28;20392;-72
2023/02/26 05:48:43;;;;;;;11.38;2.30;;;0.00;59.30;;;;;;5012390;28;20416;-72
2023/02/26 05:51:09;;;;;;;7.67;1.90;;;0.00;58.60;;;;;;5029821;28;20403;-73
2023/02/26 05:53:35;;;;;;;5.47;1.77;;;0.00;58.60;;;;;;5011221;28;20420;-72
2023/02/26 05:56:00;;;;;;;4.05;1.75;;;0.10;57.60;;;;;;5014227;28;20479;-72
2023/02/26 05:58:26;;;;;;;4.80;1.80;;;0.10;57.40;;;;;;5014513;28;20469;-73
2023/02/26 06:00:52;;;;;;;5.40;1.60;;;0.00;56.90;;;;;;5011310;28;20397;-72
2023/02/26 06:03:17;;;;;;;9.67;2.43;;;0.00;56.50;;;;;;5013411;28;20415;-72
2023/02/26 06:05:43;;;;;;;7.95;2.80;;;0.00;57.10;;;;;;5014906;28;20901;-72
2023/02/26 06:08:10;;;;;;;4.78;1.50;;;0.00;58.30;;;;;;5012793;28;20384;-76
2023/02/26 06:10:36;;;;;;;5.07;2.03;;;0.00;57.20;;;;;;5012984;28;20766;-72
2023/02/26 06:13:02;;;;;;;8.30;1.60;;;0.00;56.60;;;;;;5012707;28;20443;-73
2023/02/26 06:15:28;;;;;;;6.22;2.05;;;0.00;56.00;;;;;;5013275;28;20397;-72
2023/02/26 06:17:53;;;;;;;4.83;1.87;;;0.00;55.00;;;;;;5013060;28;20387;-73
2023/02/26 06:20:19;;;;;;;5.87;1.90;;;0.00;54.80;;;;;;5012472;28;20892;-71
2023/02/26 06:22:44;;;;;;;5.35;1.80;;;0.00;53.90;;;;;;5012576;28;20385;-71
2023/02/26 06:25:10;;;;;;;2.38;1.52;;;0.00;53.40;;;;;;5013028;28;20400;-70
2023/02/26 06:27:35;;;;;;;4.57;1.90;;;0.00;52.90;;;;;;4994894;28;20385;-72
2023/02/26 06:30:01;;;;;;;4.90;1.60;;;0.00;52.80;;;;;;5012542;28;20401;-73
2023/02/26 06:32:27;;;;;;;4.25;1.80;;;0.00;53.40;;;;;;5012001;28;20439;-73
2023/02/26 06:34:52;;;;;;;2.80;1.40;;;0.00;53.00;;;;;;5012300;28;20942;-71
2023/02/26 06:37:18;;;;;;;5.93;1.83;;;0.00;52.60;;;;;;5012053;28;20896;-71
2023/02/26 06:39:43;;;;;;;3.00;1.50;;;0.00;52.70;;;;;;5012330;28;20385;-71
2023/02/26 06:42:09;;;;;;;4.80;1.80;;;0.00;51.90;;;;;;5012266;28;20862;-73
2023/02/26 06:44:35;;;;;;;5.30;1.70;;;0.00;51.70;;;;;;5012457;28;20880;-72
2023/02/26 06:47:00;;;;;;;6.30;1.60;;;0.00;51.00;;;;;;5012913;28;20395;-73
2023/02/26 06:49:26;;;;;;;3.78;1.20;;;0.10;50.70;;;;;;5014317;28;20407;-74
2023/02/26 06:51:52;;;;;;;6.40;1.83;;;0.00;50.00;;;;;;5016107;28;20385;-73
2023/02/26 06:54:17;;;;;;;7.30;1.60;;;0.10;50.10;;;;;;5016191;28;20696;-72
2023/02/26 06:56:43;;;;;;;3.40;1.50;;;0.10;50.10;;;;;;5014342;28;20842;-72
2023/02/26 06:59:08;;;;;;;6.25;1.30;;;0.20;49.40;;;;;;5012620;28;20389;-72
2023/02/26 07:01:34;;;;;;;3.37;1.60;;;0.20;48.90;;;;;;5012158;28;20745;-72
2023/02/26 07:03:59;;;;;;;5.17;1.73;;;0.20;48.60;;;;;;5012020;28;20439;-73
2023/02/26 07:06:25;;;;;;;6.03;1.80;;;0.30;48.30;;;;;;5012012;28;20396;-73
2023/02/26 07:08:50;;;;;;;2.42;1.40;;;0.30;48.20;;;;;;5012264;28;20389;-73
2023/02/26 07:11:16;;;;;;;3.55;1.60;;;0.30;47.80;;;;;;5011742;28;20397;-73
2023/02/26 07:13:41;;;;;;;3.80;1.40;;;0.30;48.00;;;;;;4994317;28;20408;-72
2023/02/26 07:16:07;;;;;;;2.57;1.80;;;0.40;46.90;;;;;;5012152;28;20389;-73
2023/02/26 07:18:34;;;;;;;6.68;1.45;;;0.40;46.80;;;;;;5012689;28;20385;-72
2023/02/26 07:21:00;;;;;;;3.88;1.63;;;0.40;46.10;;;;;;5016514;28;20603;-74
2023/02/26 07:23:25;;;;;;;2.92;2.08;;;0.40;46.10;;;;;;5019687;28;20391;-73
2023/02/26 07:25:51;;;;;;;3.70;1.90;;;0.50;46.00;;;;;;5017374;28;20749;-72
2023/02/26 07:28:16;;;;;;;2.87;1.50;;;0.50;45.90;;;;;;5011537;28;20395;-72
2023/02/26 07:30:42;;;;;;;4.30;1.40;;;0.60;45.30;;;;;;5011322;28;20388;-72
2023/02/26 07:33:08;;;;;;;3.83;2.00;;;0.60;44.80;;;;;;5011088;28;20436;-73
2023/02/26 07:35:34;;;;;;;3.83;1.35;;;0.60;44.40;;;;;;5011371;28;20391;-73
2023/02/26 07:38:00;;;;;;;5.70;1.70;;;0.70;44.00;;;;;;5011380;28;20381;-72
2023/02/26 07:40:25;;;;;;;6.17;1.80;;;0.70;43.60;;;;;;5011590;28;20955;-73
2023/02/26 07:42:51;;;;;;;4.60;1.53;;;0.80;43.50;;;;;;5010929;28;20786;-72
2023/02/26 07:45:21;;;;;;;4.70;1.60;;;0.80;42.90;;;;;;5011087;28;20885;-72
2023/02/26 07:47:50;;;;;;;6.72;1.95;;;0.80;42.10;;;;;;5011587;28;20402;-72
2023/02/26 07:50:16;;;;;;;4.07;1.80;;;0.80;42.80;;;;;;5011008;28;20399;-73
2023/02/26 07:52:42;;;;;;;3.22;1.23;;;0.90;42.20;;;;;;5010708;28;20400;-71
2023/02/26 07:55:08;;;;;;;3.97;1.60;;;1.00;41.90;;;;;;5011385;28;20443;-74
2023/02/26 07:57:34;;;;;;;8.48;1.70;;;1.00;40.90;;;;;;5010992;28;20385;-72
2023/02/26 08:00:00;;;;;;;4.80;2.55;;;1.10;42.20;;;;;;5010920;28;20399;-72
2023/02/26 08:02:25;;;;;;;3.90;1.73;;;1.20;42.50;;;;;;5010651;28;20392;-72
2023/02/26 08:04:51;;;;;;;5.00;2.60;;;1.30;42.20;;;;;;5010945;28;20385;-73
2023/02/26 08:07:17;;;;;;;7.60;2.47;;;1.30;39.90;;;;;;5011817;28;20820;-73
2023/02/26 08:09:43;;;;;;;4.35;1.75;;;1.40;40.10;;;;;;5013877;28;20394;-73
2023/02/26 08:12:09;;;;;;;6.47;2.15;;;1.40;40.30;;;;;;5011751;28;20421;-73
2023/02/26 08:14:34;;;;;;;3.47;1.73;;;1.60;38.90;;;;;;5011234;28;20927;-72
2023/02/26 08:17:00;;;;;;;4.63;1.60;;;1.60;38.30;;;;;;5011264;28;20373;-73
2023/02/26 08:19:26;;;;;;;7.00;2.80;;;1.50;37.90;;;;;;5010728;28;20397;-72
2023/02/26 08:21:54;;;;;;;5.45;1.80;;;1.60;38.70;;;;;;4992865;28;20963;-72
2023/02/26 08:24:20;;;;;;;3.25;1.58;;;1.70;35.90;;;;;;5011068;28;20763;-73
2023/02/26 08:26:45;;;;;;;4.80;1.80;;;1.80;36.60;;;;;;5011646;28;20388;-74
2023/02/26 08:29:11;;;;;;;2.92;1.40;;;1.80;36.40;;;;;;5012304;28;20388;-73
2023/02/26 08:31:36;;;;;;;5.90;2.40;;;1.80;37.00;;;;;;5012950;28;20409;-73
2023/02/26 08:34:02;;;;;;;4.60;1.60;;;1.90;34.80;;;;;;5013496;28;20452;-74
2023/02/26 08:36:29;;;;;;;3.72;1.83;;;1.90;35.00;;;;;;5013146;28;20385;-72
2023/02/26 08:38:54;;;;;;;7.53;2.38;;;2.00;35.50;;;;;;5012557;28;20387;-74
2023/02/26 08:41:21;;;;;;;5.45;1.50;;;2.10;36.40;;;;;;5011723;28;20385;-73
2023/02/26 08:43:47;;;;;;;6.57;2.25;;;2.20;34.20;;;;;;5010693;28;20385;-72
2023/02/26 08:46:12;;;;;;;2.40;1.60;;;2.30;32.00;;;;;;5010955;28;20392;-71
2023/02/26 08:48:38;;;;;;;4.38;1.50;;;2.30;31.90;;;;;;5010917;28;20452;-74
2023/02/26 08:51:04;;;;;;;4.60;2.40;;;2.30;32.10;;;;;;5014131;28;20483;-73
2023/02/26 08:53:29;;;;;;;6.30;1.93;;;2.30;32.80;;;;;;5016766;28;20396;-71
2023/02/26 08:55:55;;;;;;;7.47;2.53;;;2.50;32.20;;;;;;5023233;28;20389;-74
2023/02/26 08:58:20;;;;;;;11.60;1.80;;;2.50;31.20;;;;;;5020258;28;20466;-73
2023/02/26 09:00:47;;;;;;;6.30;2.55;;;2.50;29.80;;;;;;5016077;28;20392;-72
2023/02/26 09:03:12;;;;;;;6.87;2.03;;;2.50;31.70;;;;;;5015265;28;20389;-73
2023/02/26 09:05:39;;;;;;;7.60;1.50;;;2.60;30.00;;;;;;5015390;28;20387;-73
2023/02/26 09:08:06;;;;;;;6.25;1.63;;;2.60;29.50;;;;;;5010650;28;20878;-72
2023/02/26 09:10:32;;;;;;;3.45;1.30;;;2.60;28.00;;;;;;5010235;28;20408;-73
2023/02/26 09:12:57;;;;;;;3.90;1.50;;;2.50;27.80;;;;;;5011003;28;20405;-73
2023/02/26 09:15:23;;;;;;;3.10;1.73;;;2.50;28.20;;;;;;5013333;28;20388;-74
2023/02/26 09:17:48;;;;;;;2.20;1.50;;;2.60;28.50;;;;;;5013845;28;20389;-71
2023/02/26 09:20:14;;;;;;;3.90;1.50;;;2.70;27.70;;;;;;5013941;28;20385;-72
2023/02/26 09:22:40;;;;;;;5.00;1.60;;;2.80;26.70;;;;;;5013664;28;20745;-72
2023/02/26 09:25:06;;;;;;;4.17;1.50;;;2.80;25.90;;;;;;5013428;28;20491;-72
2023/02/26 09:27:34;;;;;;;4.10;1.40;;;2.80;26.70;;;;;;5013327;28;20388;-72
2023/02/26 09:29:59;;;;;;;3.47;1.73;;;3.00;26.00;;;;;;5013399;28;20403;-73
2023/02/26 09:32:25;;;;;;;2.67;1.60;;;3.10;25.70;;;;;;5012965;28;20913;-73
2023/02/26 09:34:51;;;;;;;5.00;1.35;;;3.20;25.10;;;;;;5015493;28;20388;-73
2023/02/26 09:37:17;;;;;;;5.32;2.22;;;3.20;24.20;;;;;;5017401;28;20385;-73
2023/02/26 09:39:43;;;;;;;7.60;1.30;;;3.30;26.00;;;;;;5018294;28;20808;-73
2023/02/26 09:42:30;;;;;;;4.00;1.70;;;3.40;23.80;;;;;;5017376;28;20400;-72
2023/02/26 09:44:59;;;;;;;2.85;1.30;;;3.70;24.10;;;;;;5019266;28;20381;-71
2023/02/26 09:47:38;;;;;;;5.83;2.20;;;3.90;22.60;;;;;;5013276;28;20776;-72
2023/02/26 09:50:20;;;;;;;7.18;1.92;;;4.10;24.20;;;;;;5024730;28;20396;-73
2023/02/26 09:52:58;;;;;;;8.82;2.03;;;4.60;23.50;;;;;;5016440;28;20416;-73
2023/02/26 09:55:26;;;;;;;9.02;1.90;;;4.70;22.50;;;;;;5014006;28;20870;-72
2023/02/26 09:57:57;;;;;;;5.50;1.80;;;4.80;22.70;;;;;;5010834;28;20392;-73
2023/02/26 10:00:37;;;;;;;4.55;2.05;;;5.00;20.00;;;;;;5025945;28;20449;-70
2023/02/26 10:03:28;;;;;;;4.22;1.75;;;4.80;21.30;;;;;;5031940;28;20401;-73
2023/02/26 10:06:22;;;;;;;4.60;2.13;;;4.70;19.50;;;;;;4995480;28;20389;-73
2023/02/26 10:09:24;;;;;;;4.32;1.10;;;4.90;20.00;;;;;;5012849;28;20392;-72
2023/02/26 10:11:59;;;;;;;6.65;2.15;;;4.90;18.20;;;;;;5013542;28;20834;-74
2023/02/26 10:14:36;;;;;;;6.55;2.85;;;4.60;19.10;;;;;;5012897;28;20810;-73
2023/02/26 10:17:21;;;;;;;5.95;2.55;;;4.60;21.40;;;;;;5028879;28;20411;-73
2023/02/26 10:19:55;;;;;;;5.90;1.95;;;4.90;19.90;;;;;;5032726;28;20387;-73
2023/02/26 10:22:30;;;;;;;3.63;2.17;;;4.70;19.60;;;;;;5032161;28;20383;-72
2023/02/26 10:25:08;;;;;;;3.47;1.60;;;4.90;21.20;;;;;;5032305;28;20399;-74
2023/02/26 10:27:43;;;;;;;4.68;1.40;;;5.20;19.60;;;;;;5032536;28;20393;-72
2023/02/26 10:30:37;;;;;;;4.35;1.20;;;5.50;18.20;;;;;;5032313;28;20914;-73
2023/02/26 10:33:21;;;;;;;2.20;1.10;;;5.70;18.10;;;;;;5032099;28;20411;-74
2023/02/26 10:35:52;;;;;;;5.63;1.90;;;5.60;17.40;;;;;;5032950;28;20381;-73
2023/02/26 10:38:23;;;;;;;4.18;1.77;;;5.50;17.40;;;;;;5033254;28;20495;-73
2023/02/26 10:40:54;;;;;;;2.08;1.52;;;5.50;18.60;;;;;;5032260;28;20382;-73
2023/02/26 10:43:31;;;;;;;6.65;1.45;;;5.50;17.50;;;;;;5032267;28;20387;-72
2023/02/26 10:46:28;;;;;;;4.75;1.73;;;5.30;16.20;;;;;;5032197;28;20394;-74
2023/02/26 10:49:24;;;;;;;2.90;1.50;;;5.20;17.60;;;;;;5032207;28;20391;-74
2023/02/26 10:51:51;;;;;;;4.57;1.92;;;5.20;17.00;;;;;;5031979;28;20459;-75
2023/02/26 10:54:20;;;;;;;1.58;1.10;;;5.50;17.90;;;;;;5031894;28;20410;-73
2023/02/26 10:56:45;;;;;;;6.87;2.20;;;5.70;15.60;;;;;;5033432;28;20860;-74
2023/02/26 10:59:11;;;;;;;6.95;2.83;;;5.80;17.90;;;;;;5033938;28;20393;-74
2023/02/26 11:01:37;;;;;;;6.63;1.40;;;5.70;15.60;;;;;;5033740;28;20470;-73
2023/02/26 11:04:16;;;;;;;6.17;2.30;;;5.30;15.00;;;;;;5031916;28;20418;-73
2023/02/26 11:06:46;;;;;;;3.80;1.60;;;5.20;16.50;;;;;;5031848;28;20402;-72
2023/02/26 11:09:22;;;;;;;4.20;1.40;;;5.20;15.70;;;;;;5031561;28;20386;-75
2023/02/26 11:11:56;;;;;;;2.90;1.23;;;5.20;15.00;;;;;;5031564;28;20426;-74
2023/02/26 11:14:24;;;;;;;4.82;1.92;;;5.30;15.10;;;;;;5031411;28;20415;-74
2023/02/26 11:16:57;;;;;;;3.65;1.50;;;5.40;14.80;;;;;;5031442;28;20911;-74
2023/02/26 11:19:29;;;;;;;2.33;1.13;;;5.40;14.50;;;;;;5031364;28;20380;-73
2023/02/26 11:21:56;;;;;;;4.45;1.55;;;5.40;14.10;;;;;;5031615;28;20391;-72
2023/02/26 11:24:32;;;;;;;4.43;1.48;;;5.50;14.40;;;;;;5032812;28;20391;-73
2023/02/26 11:27:02;;;;;;;4.68;1.77;;;5.60;14.90;;;;;;5031946;28;20383;-72
2023/02/26 11:29:37;;;;;;;2.70;1.50;;;5.80;15.60;;;;;;5031375;28;20383;-72
2023/02/26 11:32:04;;;;;;;5.95;1.58;;;5.90;15.60;;;;;;5031679;28;20440;-74
2023/02/26 11:34:31;;;;;;;8.80;2.70;;;6.10;15.40;;;;;;5032847;28;20395;-74
2023/02/26 11:36:58;;;;;;;5.40;2.10;;;6.10;16.20;;;;;;5034034;28;20387;-74
2023/02/26 11:39:27;;;;;;;4.60;2.05;;;6.10;16.80;;;;;;5034543;28;20383;-75
2023/02/26 11:41:57;;;;;;;1.80;1.00;;;6.10;15.90;;;;;;5033146;28;20709;-74
2023/02/26 11:44:34;;;;;;;3.33;1.27;;;5.90;13.20;;;;;;5033036;28;20393;-72
2023/02/26 11:47:04;;;;;;;11.40;1.70;;;5.40;14.30;;;;;;5030914;28;20776;-72
2023/02/26 11:49:31;;;;;;;3.10;1.10;;;5.40;13.10;;;;;;5030857;28;20803;-75
2023/02/26 11:52:20;;;;;;;3.60;1.13;;;5.30;12.50;;;;;;5032822;28;20391;-74
2023/02/26 11:54:49;;;;;;;3.28;1.27;;;5.20;11.80;;;;;;5033048;28;20376;-73
2023/02/26 11:57:17;;;;;;;1.80;1.25;;;5.20;12.50;;;;;;5034335;28;20379;-74
2023/02/26 11:59:49;;;;;;;3.00;1.37;;;5.30;11.70;;;;;;5032591;28;20375;-73
2023/02/26 12:02:19;;;;;;;2.90;1.40;;;5.40;13.20;;;;;;5031325;28;20383;-74
2023/02/26 12:04:48;;;;;;;4.30;1.10;;;5.50;13.10;;;;;;5030280;28;20398;-74
2023/02/26 12:07:15;;;;;;;5.25;1.98;;;5.70;12.40;;;;;;5030416;28;20533;-73
2023/02/26 12:09:42;;;;;;;5.00;2.30;;;5.90;14.70;;;;;;5030524;28;20391;-73
2023/02/26 12:12:29;;;;;;;5.13;1.40;;;5.90;15.00;;;;;;5030397;28;20383;-71
2023/02/26 12:15:35;;;;;;;2.22;1.30;;;5.90;14.00;;;;;;5012772;28;20571;-72
2023/02/26 12:18:12;;;;;;;2.83;1.40;;;6.00;11.60;;;;;;5030211;28;20390;-73
2023/02/26 12:20:57;;;;;;;4.20;1.33;;;5.80;12.30;;;;;;5030906;28;20383;-75
2023/02/26 12:23:48;;;;;;;2.80;1.60;;;5.90;14.70;;;;;;5031335;28;20376;-73
2023/02/26 12:26:23;;;;;;;6.65;2.33;;;5.80;12.90;;;;;;5012540;28;20427;-74
2023/02/26 12:29:07;;;;;;;1.55;1.15;;;5.50;13.90;;;;;;5032544;28;20910;-74
2023/02/26 12:31:53;;;;;;;3.70;1.55;;;5.40;11.80;;;;;;5034199;28;20496;-73
2023/02/26 12:34:44;;;;;;;2.10;1.00;;;5.50;10.90;;;;;;5034106;28;20410;-74
2023/02/26 12:37:29;;;;;;;2.13;1.00;;;5.40;11.00;;;;;;5031258;28;20407;-74
2023/02/26 12:40:10;;;;;;;4.32;1.30;;;5.50;11.80;;;;;;5030929;28;20390;-74
2023/02/26 12:42:57;;;;;;;1.80;1.20;;;5.60;11.20;;;;;;5030107;28;20410;-75
2023/02/26 12:45:46;;;;;;;2.42;1.00;;;5.70;11.90;;;;;;5030306;28;20401;-74
2023/02/26 12:48:15;;;;;;;2.83;1.88;;;5.60;10.50;;;;;;5031861;28;20382;-73
2023/02/26 12:50:49;;;;;;;2.75;1.02;;;5.50;13.30;;;;;;5034082;28;20787;-75
2023/02/26 12:53:38;;;;;;;5.75;1.50;;;5.40;11.30;;;;;;5015902;28;20772;-75
2023/02/26 12:56:23;;;;;;;2.50;1.00;;;5.50;11.80;;;;;;5033788;28;20787;-73
2023/02/26 12:59:16;;;;;;;2.88;1.30;;;5.40;10.00;;;;;;5016005;28;20391;-74
2023/02/26 13:01:53;;;;;;;2.00;1.10;;;5.30;12.10;;;;;;5033467;28;20386;-73
2023/02/26 13:04:43;;;;;;;2.10;1.30;;;5.40;11.10;;;;;;5033839;28;20406;-73
2023/02/26 13:07:20;;;;;;;3.78;1.60;;;5.30;13.90;;;;;;5033694;28;20872;-75
2023/02/26 13:10:16;;;;;;;2.40;1.40;;;5.20;13.60;;;;;;5033683;28;20869;-74
2023/02/26 13:13:01;;;;;;;3.87;1.63;;;5.30;14.90;;;;;;5034189;28;20411;-72
2023/02/26 13:15:50;;;;;;;2.33;1.48;;;5.50;14.60;;;;;;5033287;28;20456;-73
2023/02/26 13:18:24;;;;;;;2.53;1.30;;;5.70;12.60;;;;;;5032989;28;20382;-74